createdAt,value
2023-02-16T00:01:00.544Z,101538.41
2023-02-16T00:02:02.888Z,101541.06
2023-02-16T00:03:05.168Z,101539.28
2023-02-16T00:04:20.847Z,101539.25
2023-02-16T00:05:29.678Z,101535.75
2023-02-16T00:06:31.922Z,101537.47
2023-02-16T00:07:34.298Z,101532.13
2023-02-16T00:08:36.502Z,101534.78
2023-02-16T00:09:38.657Z,101532.97
2023-02-16T00:10:41.561Z,101540.97
2023-02-16T00:12:02.886Z,101542.78
2023-02-16T00:13:45.366Z,101540.19
2023-02-16T00:14:47.600Z,101538.41
2023-02-16T00:15:50.283Z,101533.94
2023-02-16T00:16:57.834Z,101534.84
2023-02-16T00:18:02.775Z,101530.41
2023-02-16T00:19:21.284Z,101532.19
2023-02-16T00:20:23.801Z,101535.69
2023-02-16T00:21:27.196Z,101536.56
2023-02-16T00:22:29.664Z,101529.50
2023-02-16T00:23:32.055Z,101519.84
2023-02-16T00:24:35.253Z,101526.06
2023-02-16T00:25:38.369Z,101523.38
2023-02-16T00:26:41.318Z,101524.25
2023-02-16T00:27:44.023Z,101519.81
2023-02-16T00:28:50.049Z,101523.34
2023-02-16T00:29:52.371Z,101516.28
2023-02-16T00:30:54.726Z,101522.47
2023-02-16T00:31:58.939Z,101522.47
2023-02-16T00:33:01.538Z,101525.13
2023-02-16T00:34:28.876Z,101523.41
2023-02-16T00:35:31.073Z,101518.13
2023-02-16T00:36:34.278Z,101524.28
2023-02-16T00:37:36.491Z,101521.59
2023-02-16T00:38:39.165Z,101524.28
2023-02-16T00:39:43.187Z,101524.25
2023-02-16T00:40:45.955Z,101518.97
2023-02-16T00:41:51.829Z,101515.41
2023-02-16T00:42:56.094Z,101513.69
2023-02-16T00:43:59.608Z,101521.63
2023-02-16T00:45:02.502Z,101511.91
2023-02-16T00:46:05.239Z,101518.97
2023-02-16T00:47:30.085Z,101514.56
2023-02-16T00:48:32.481Z,101506.63
2023-02-16T00:49:34.913Z,101509.31
2023-02-16T00:50:37.332Z,101517.28
2023-02-16T00:51:39.737Z,101516.41
2023-02-16T00:52:42.964Z,101509.34
2023-02-16T00:53:45.400Z,101519.09
2023-02-16T00:54:47.609Z,101520.88
2023-02-16T00:55:50.391Z,101517.31
2023-02-16T00:56:52.721Z,101524.41
2023-02-16T00:58:05.709Z,101520.88
2023-02-16T00:59:16.710Z,101524.41
2023-02-16T01:00:24.318Z,101520.03
2023-02-16T01:01:32.648Z,101521.81
2023-02-16T01:02:35.061Z,101518.25
2023-02-16T01:03:37.873Z,101524.47
2023-02-16T01:04:40.334Z,101524.44
2023-02-16T01:05:43.146Z,101518.25
2023-02-16T01:07:03.660Z,101522.72
2023-02-16T01:08:35.669Z,101513.00
2023-02-16T01:09:57.764Z,101514.75
2023-02-16T01:11:10.416Z,101515.63
2023-02-16T01:12:20.209Z,101517.38
2023-02-16T01:13:23.852Z,101520.03
2023-02-16T01:14:26.302Z,101520.91
2023-02-16T01:15:28.797Z,101518.25
2023-02-16T01:16:41.682Z,101516.50
2023-02-16T01:17:43.887Z,101517.41
2023-02-16T01:18:46.867Z,101525.34
2023-02-16T01:19:49.374Z,101514.75
2023-02-16T01:20:51.884Z,101521.78
2023-02-16T01:21:54.285Z,101523.53
2023-02-16T01:22:56.611Z,101516.50
2023-02-16T01:23:58.815Z,101525.31
2023-02-16T01:25:01.267Z,101530.63
2023-02-16T01:26:04.443Z,101530.56
2023-02-16T01:27:12.696Z,101532.34
2023-02-16T01:28:22.969Z,101530.63
2023-02-16T01:29:25.196Z,101528.81
2023-02-16T01:30:28.383Z,101527.06
2023-02-16T01:31:30.815Z,101526.16
2023-02-16T01:32:33.771Z,101534.13
2023-02-16T01:33:35.978Z,101528.84
2023-02-16T01:34:38.728Z,101536.81
2023-02-16T01:35:41.738Z,101535.03
2023-02-16T01:36:47.108Z,101530.59
2023-02-16T01:37:51.328Z,101531.50
2023-02-16T01:38:53.850Z,101528.81
2023-02-16T01:39:56.063Z,101527.91
2023-02-16T01:41:32.182Z,101532.34
2023-02-16T01:42:58.828Z,101529.72
2023-02-16T01:44:13.252Z,101531.47
2023-02-16T01:45:20.154Z,101525.28
2023-02-16T01:47:11.929Z,101523.50
2023-02-16T01:48:22.994Z,101524.38
2023-02-16T01:49:25.171Z,101520.84
2023-02-16T01:50:43.305Z,101522.66
2023-02-16T01:51:52.224Z,101521.78
2023-02-16T01:53:06.246Z,101520.91
2023-02-16T01:54:31.566Z,101521.75
2023-02-16T01:55:38.410Z,101518.19
2023-02-16T01:56:46.189Z,101513.78
2023-02-16T01:57:56.594Z,101511.16
2023-02-16T01:59:21.086Z,101515.56
2023-02-16T02:00:45.289Z,101516.44
2023-02-16T02:01:55.401Z,101513.78
2023-02-16T02:03:25.663Z,101507.59
2023-02-16T02:04:49.791Z,101511.16
2023-02-16T02:05:52.276Z,101504.09
2023-02-16T02:06:54.479Z,101504.06
2023-02-16T02:08:24.029Z,101512.03
2023-02-16T02:09:39.204Z,101500.53
2023-02-16T02:10:44.900Z,101497.91
2023-02-16T02:11:52.693Z,101500.56
2023-02-16T02:13:15.937Z,101500.56
2023-02-16T02:14:24.241Z,101501.44
2023-02-16T02:15:31.321Z,101499.66
2023-02-16T02:16:33.593Z,101502.31
2023-02-16T02:17:37.398Z,101491.69
2023-02-16T02:18:40.211Z,101492.53
2023-02-16T02:19:59.728Z,101498.72
2023-02-16T02:21:43.756Z,101493.44
2023-02-16T02:23:34.211Z,101491.63
2023-02-16T02:25:15.336Z,101503.06
2023-02-16T02:26:50.308Z,101501.34
2023-02-16T02:28:07.846Z,101499.50
2023-02-16T02:29:28.642Z,101492.44
2023-02-16T02:31:12.419Z,101502.13
2023-02-16T02:32:47.257Z,101498.59
2023-02-16T02:34:11.781Z,101500.38
2023-02-16T02:35:26.401Z,101495.97
2023-02-16T02:36:42.693Z,101496.88
2023-02-16T02:37:47.650Z,101490.72
2023-02-16T02:39:04.456Z,101490.72
2023-02-16T02:40:12.939Z,101488.91
2023-02-16T02:42:05.204Z,101486.19
2023-02-16T02:43:33.410Z,101480.06
2023-02-16T02:44:42.183Z,101495.03
2023-02-16T02:45:50.849Z,101488.00
2023-02-16T02:46:53.766Z,101490.69
2023-02-16T02:47:55.992Z,101495.03
2023-02-16T02:48:59.699Z,101494.13
2023-02-16T02:50:02.348Z,101497.69
2023-02-16T02:51:27.113Z,101502.13
2023-02-16T02:52:30.564Z,101499.44
2023-02-16T02:53:36.154Z,101498.53
2023-02-16T02:54:59.922Z,101497.63
2023-02-16T02:56:22.501Z,101503.75
2023-02-16T02:57:49.901Z,101500.22
2023-02-16T02:59:16.077Z,101498.41
2023-02-16T03:00:43.681Z,101494.88
2023-02-16T03:01:53.662Z,101488.75
2023-02-16T03:03:01.176Z,101485.22
2023-02-16T03:04:06.117Z,101492.38
2023-02-16T03:05:11.950Z,101491.47
2023-02-16T03:06:28.439Z,101489.69
2023-02-16T03:07:48.435Z,101487.91
2023-02-16T03:09:07.007Z,101493.25
2023-02-16T03:10:29.002Z,101491.44
2023-02-16T03:11:57.680Z,101499.34
2023-02-16T03:13:02.394Z,101495.84
2023-02-16T03:14:22.956Z,101486.94
2023-02-16T03:15:26.590Z,101495.75
2023-02-16T03:16:44.675Z,101494.00
2023-02-16T03:18:05.667Z,101495.72
2023-02-16T03:19:28.220Z,101487.81
2023-02-16T03:20:49.241Z,101484.28
2023-02-16T03:22:10.745Z,101479.03
2023-02-16T03:23:31.699Z,101486.03
2023-02-16T03:24:52.845Z,101487.91
2023-02-16T03:26:14.171Z,101482.59
2023-02-16T03:27:42.687Z,101487.91
2023-02-16T03:29:04.236Z,101486.06
2023-02-16T03:30:10.792Z,101490.50
2023-02-16T03:31:20.799Z,101485.19
2023-02-16T03:32:23.203Z,101492.25
2023-02-16T03:33:26.830Z,101486.03
2023-02-16T03:34:30.972Z,101489.56
2023-02-16T03:35:33.556Z,101493.94
2023-02-16T03:36:38.462Z,101489.53
2023-02-16T03:37:41.963Z,101488.66
2023-02-16T03:38:44.674Z,101483.38
2023-02-16T03:40:05.621Z,101489.50
2023-02-16T03:41:08.069Z,101487.72
2023-02-16T03:42:10.235Z,101488.72
2023-02-16T03:43:12.626Z,101486.03
2023-02-16T03:44:15.654Z,101487.75
2023-02-16T03:45:19.588Z,101485.97
2023-02-16T03:46:21.876Z,101480.69
2023-02-16T03:47:24.298Z,101475.38
2023-02-16T03:48:26.968Z,101481.56
2023-02-16T03:49:29.134Z,101485.09
2023-02-16T03:50:31.769Z,101477.19
2023-02-16T03:51:34.024Z,101483.38
2023-02-16T03:52:36.640Z,101488.66
2023-02-16T03:53:38.826Z,101486.84
2023-02-16T03:54:40.992Z,101484.19
2023-02-16T03:55:45.514Z,101478.00
2023-02-16T03:56:47.912Z,101473.63
2023-02-16T03:57:50.092Z,101476.28
2023-02-16T03:58:52.330Z,101478.00
2023-02-16T03:59:54.769Z,101480.69
2023-02-16T04:00:59.134Z,101478.06
2023-02-16T04:02:01.407Z,101480.75
2023-02-16T04:03:05.163Z,101481.63
2023-02-16T04:04:07.558Z,101479.88
2023-02-16T04:05:09.741Z,101485.19
2023-02-16T04:06:12.184Z,101479.84
2023-02-16T04:07:14.332Z,101487.78
2023-02-16T04:08:16.690Z,101477.19
2023-02-16T04:09:19.119Z,101486.91
2023-02-16T04:10:21.702Z,101487.81
2023-02-16T04:11:43.027Z,101489.59
2023-02-16T04:12:45.635Z,101476.31
2023-02-16T04:13:47.797Z,101487.75
2023-02-16T04:14:50.375Z,101474.50
2023-02-16T04:15:52.913Z,101480.72
2023-02-16T04:16:56.829Z,101478.91
2023-02-16T04:17:59.484Z,101478.06
2023-02-16T04:19:01.685Z,101478.91
2023-02-16T04:20:05.287Z,101475.44
2023-02-16T04:21:07.744Z,101478.97
2023-02-16T04:22:09.960Z,101475.44
2023-02-16T04:23:12.368Z,101476.34
2023-02-16T04:24:14.581Z,101474.50
2023-02-16T04:25:18.768Z,101475.38
2023-02-16T04:26:21.421Z,101471.88
2023-02-16T04:27:23.616Z,101470.09
2023-02-16T04:28:26.283Z,101473.66
2023-02-16T04:29:29.343Z,101466.56
2023-02-16T04:30:32.201Z,101463.91
2023-02-16T04:31:35.122Z,101467.41
2023-02-16T04:32:37.949Z,101471.88
2023-02-16T04:33:40.579Z,101468.38
2023-02-16T04:34:42.929Z,101471.00
2023-02-16T04:35:45.602Z,101472.78
2023-02-16T04:36:47.786Z,101475.44
2023-02-16T04:37:49.979Z,101471.91
2023-02-16T04:38:52.229Z,101477.25
2023-02-16T04:39:54.513Z,101485.16
2023-02-16T04:40:56.927Z,101480.72
2023-02-16T04:41:59.136Z,101483.38
2023-02-16T04:43:01.320Z,101482.47
2023-02-16T04:44:03.511Z,101478.03
2023-02-16T04:45:06.964Z,101479.78
2023-02-16T04:46:09.372Z,101485.91
2023-02-16T04:47:11.796Z,101485.97
2023-02-16T04:48:14.265Z,101487.69
2023-02-16T04:49:16.550Z,101484.19
2023-02-16T04:50:19.031Z,101481.56
2023-02-16T04:51:21.229Z,101487.72
2023-02-16T04:52:23.621Z,101491.25
2023-02-16T04:53:26.133Z,101481.56
2023-02-16T04:54:28.334Z,101491.25
2023-02-16T04:55:31.204Z,101488.59
2023-02-16T04:56:33.531Z,101485.06
2023-02-16T04:57:36.236Z,101496.53
2023-02-16T04:58:39.173Z,101489.50
2023-02-16T04:59:41.380Z,101493.88
2023-02-16T05:00:43.885Z,101492.13
2023-02-16T05:01:46.596Z,101484.16
2023-02-16T05:02:48.852Z,101485.94
2023-02-16T05:03:51.395Z,101490.25
2023-02-16T05:04:53.794Z,101482.34
2023-02-16T05:05:56.199Z,101492.88
2023-02-16T05:06:58.667Z,101489.34
2023-02-16T05:08:02.396Z,101489.34
2023-02-16T05:09:06.347Z,101492.06
2023-02-16T05:10:09.161Z,101485.81
2023-02-16T05:11:30.457Z,101486.72
2023-02-16T05:12:51.444Z,101484.03
2023-02-16T05:14:16.374Z,101489.41
2023-02-16T05:15:18.758Z,101487.63
2023-02-16T05:16:22.897Z,101482.31
2023-02-16T05:17:26.916Z,101481.44
2023-02-16T05:18:29.097Z,101478.78
2023-02-16T05:19:31.600Z,101484.97
2023-02-16T05:20:52.485Z,101484.06
2023-02-16T05:21:54.539Z,101484.13
2023-02-16T05:22:56.828Z,101488.53
2023-02-16T05:24:00.859Z,101480.59
2023-02-16T05:25:03.591Z,101484.13
2023-02-16T05:26:05.765Z,101481.41
2023-02-16T05:27:11.849Z,101480.47
2023-02-16T05:28:14.520Z,101484.91
2023-02-16T05:29:16.691Z,101479.63
2023-02-16T05:30:19.142Z,101480.47
2023-02-16T05:31:22.665Z,101475.22
2023-02-16T05:32:25.633Z,101478.75
2023-02-16T05:33:28.082Z,101475.22
2023-02-16T05:34:30.298Z,101474.41
2023-02-16T05:35:34.576Z,101474.34
2023-02-16T05:36:36.766Z,101470.84
2023-02-16T05:37:41.682Z,101467.38
2023-02-16T05:38:44.961Z,101470.91
2023-02-16T05:39:47.451Z,101481.50
2023-02-16T05:40:49.915Z,101475.31
2023-02-16T05:41:52.107Z,101478.00
2023-02-16T05:42:55.725Z,101479.75
2023-02-16T05:44:03.509Z,101475.31
2023-02-16T05:45:06.342Z,101472.75
2023-02-16T05:46:09.552Z,101473.53
2023-02-16T05:47:12.578Z,101463.00
2023-02-16T05:48:15.025Z,101465.72
2023-02-16T05:49:18.031Z,101464.84
2023-02-16T05:50:20.707Z,101468.31
2023-02-16T05:51:25.147Z,101472.72
2023-02-16T05:52:27.534Z,101473.63
2023-02-16T05:53:29.696Z,101470.03
2023-02-16T05:54:32.231Z,101467.41
2023-02-16T05:55:34.624Z,101470.09
2023-02-16T05:56:37.078Z,101475.38
2023-02-16T05:57:39.720Z,101475.47
2023-02-16T05:58:41.933Z,101473.72
2023-02-16T05:59:44.109Z,101481.59
2023-02-16T06:00:46.870Z,101480.72
2023-02-16T06:01:51.840Z,101477.19
2023-02-16T06:02:55.119Z,101493.03
2023-02-16T06:03:57.384Z,101491.31
2023-02-16T06:04:59.542Z,101484.31
2023-02-16T06:06:04.058Z,101483.34
2023-02-16T06:07:06.503Z,101493.03
2023-02-16T06:08:09.067Z,101486.91
2023-02-16T06:09:11.719Z,101496.59
2023-02-16T06:10:16.266Z,101486.91
2023-02-16T06:11:37.242Z,101485.16
2023-02-16T06:12:39.446Z,101479.81
2023-02-16T06:13:41.630Z,101482.47
2023-02-16T06:14:44.327Z,101480.72
2023-02-16T06:15:47.529Z,101482.44
2023-02-16T06:16:54.225Z,101475.38
2023-02-16T06:17:56.412Z,101482.44
2023-02-16T06:19:00.149Z,101485.09
2023-02-16T06:20:03.246Z,101475.38
2023-02-16T06:21:05.896Z,101477.19
2023-02-16T06:22:08.443Z,101478.00
2023-02-16T06:23:13.091Z,101476.22
2023-02-16T06:24:15.540Z,101477.16
2023-02-16T06:25:20.426Z,101485.16
2023-02-16T06:26:22.907Z,101478.97
2023-02-16T06:27:25.087Z,101480.78
2023-02-16T06:28:27.299Z,101480.72
2023-02-16T06:29:30.089Z,101481.63
2023-02-16T06:30:33.005Z,101472.84
2023-02-16T06:31:36.721Z,101477.25
2023-02-16T06:32:39.344Z,101465.81
2023-02-16T06:33:43.556Z,101470.28
2023-02-16T06:34:45.838Z,101466.66
2023-02-16T06:35:48.752Z,101466.66
2023-02-16T06:36:50.981Z,101464.03
2023-02-16T06:37:53.394Z,101465.81
2023-02-16T06:38:55.755Z,101465.81
2023-02-16T06:39:57.937Z,101461.44
2023-02-16T06:41:00.415Z,101467.56
2023-02-16T06:42:02.853Z,101463.16
2023-02-16T06:43:05.070Z,101465.81
2023-02-16T06:44:13.522Z,101467.63
2023-02-16T06:45:16.070Z,101468.50
2023-02-16T06:46:18.604Z,101470.31
2023-02-16T06:47:20.937Z,101474.69
2023-02-16T06:48:23.316Z,101477.38
2023-02-16T06:49:27.809Z,101471.16
2023-02-16T06:50:30.493Z,101476.44
2023-02-16T06:51:33.104Z,101475.56
2023-02-16T06:52:35.971Z,101478.25
2023-02-16T06:53:38.376Z,101478.25
2023-02-16T06:54:41.152Z,101474.72
2023-02-16T06:55:43.338Z,101469.44
2023-02-16T06:56:45.574Z,101469.41
2023-02-16T06:57:47.808Z,101478.25
2023-02-16T06:58:50.476Z,101481.78
2023-02-16T06:59:52.787Z,101485.28
2023-02-16T07:00:55.559Z,101485.28
2023-02-16T07:01:57.979Z,101482.66
2023-02-16T07:03:00.475Z,101485.38
2023-02-16T07:04:02.984Z,101480.94
2023-02-16T07:05:05.840Z,101479.22
2023-02-16T07:06:08.338Z,101488.97
2023-02-16T07:07:10.530Z,101490.75
2023-02-16T07:08:12.962Z,101489.88
2023-02-16T07:09:15.167Z,101492.59
2023-02-16T07:10:17.803Z,101499.69
2023-02-16T07:11:20.759Z,101504.97
2023-02-16T07:12:22.961Z,101504.06
2023-02-16T07:13:25.574Z,101511.09
2023-02-16T07:14:28.151Z,101506.72
2023-02-16T07:15:30.342Z,101505.78
2023-02-16T07:16:32.569Z,101503.16
2023-02-16T07:17:35.057Z,101503.13
2023-02-16T07:18:37.256Z,101503.16
2023-02-16T07:19:39.650Z,101499.66
2023-02-16T07:20:41.971Z,101504.97
2023-02-16T07:21:44.938Z,101511.19
2023-02-16T07:22:47.150Z,101503.22
2023-02-16T07:23:49.593Z,101512.06
2023-02-16T07:24:52.056Z,101509.38
2023-02-16T07:25:54.233Z,101505.88
2023-02-16T07:26:56.657Z,101502.31
2023-02-16T07:27:59.163Z,101501.41
2023-02-16T07:29:01.362Z,101509.31
2023-02-16T07:30:04.416Z,101504.03
2023-02-16T07:31:10.903Z,101507.56
2023-02-16T07:32:13.283Z,101500.47
2023-02-16T07:33:16.052Z,101500.47
2023-02-16T07:34:20.840Z,101496.09
2023-02-16T07:35:23.571Z,101496.09
2023-02-16T07:36:25.895Z,101495.25
2023-02-16T07:37:28.181Z,101498.78
2023-02-16T07:38:30.850Z,101504.09
2023-02-16T07:39:34.105Z,101502.31
2023-02-16T07:40:36.453Z,101499.66
2023-02-16T07:41:38.837Z,101497.94
2023-02-16T07:42:43.298Z,101494.41
2023-02-16T07:43:45.473Z,101497.06
2023-02-16T07:44:47.897Z,101497.97
2023-02-16T07:45:50.516Z,101498.84
2023-02-16T07:46:52.713Z,101501.50
2023-02-16T07:47:54.893Z,101491.78
2023-02-16T07:48:57.270Z,101497.09
2023-02-16T07:49:59.751Z,101504.16
2023-02-16T07:51:02.704Z,101505.09
2023-02-16T07:52:05.278Z,101498.03
2023-02-16T07:53:07.748Z,101502.47
2023-02-16T07:54:10.063Z,101504.25
2023-02-16T07:55:12.283Z,101498.00
2023-02-16T07:56:32.216Z,101499.75
2023-02-16T07:57:34.439Z,101499.69
2023-02-16T07:58:36.772Z,101493.47
2023-02-16T07:59:39.005Z,101499.56
2023-02-16T08:00:41.419Z,101495.09
2023-02-16T08:01:43.592Z,101498.56
2023-02-16T08:02:45.897Z,101501.13
2023-02-16T08:03:48.579Z,101493.06
2023-02-16T08:04:52.850Z,101502.72
2023-02-16T08:05:55.581Z,101504.44
2023-02-16T08:06:58.079Z,101499.06
2023-02-16T08:08:00.297Z,101502.59
2023-02-16T08:09:03.582Z,101499.84
2023-02-16T08:10:06.858Z,101499.81
2023-02-16T08:11:13.238Z,101500.69
2023-02-16T08:12:16.312Z,101498.88
2023-02-16T08:13:18.542Z,101486.38
2023-02-16T08:14:20.930Z,101486.38
2023-02-16T08:15:23.945Z,101488.00
2023-02-16T08:16:29.073Z,101483.44
2023-02-16T08:17:31.306Z,101484.25
2023-02-16T08:18:33.696Z,101492.22
2023-02-16T08:19:37.203Z,101490.19
2023-02-16T08:21:01.042Z,101498.13
2023-02-16T08:22:02.812Z,101493.63
2023-02-16T08:23:05.540Z,101497.97
2023-02-16T08:24:08.770Z,101494.44
2023-02-16T08:25:11.685Z,101502.59
2023-02-16T08:26:17.328Z,101496.41
2023-02-16T08:27:19.884Z,101498.19
2023-02-16T08:28:22.069Z,101503.47
2023-02-16T08:29:24.606Z,101506.00
2023-02-16T08:30:27.260Z,101501.47
2023-02-16T08:31:31.979Z,101505.00
2023-02-16T08:32:34.371Z,101504.94
2023-02-16T08:33:37.021Z,101494.09
2023-02-16T08:34:41.533Z,101498.41
2023-02-16T08:35:45.588Z,101492.94
2023-02-16T08:36:53.574Z,101497.25
2023-02-16T08:37:55.714Z,101497.03
2023-02-16T08:38:58.946Z,101497.88
2023-02-16T08:40:02.814Z,101496.97
2023-02-16T08:41:05.017Z,101498.75
2023-02-16T08:42:07.228Z,101496.94
2023-02-16T08:43:09.403Z,101496.88
2023-02-16T08:44:12.380Z,101498.78
2023-02-16T08:45:15.451Z,101495.81
2023-02-16T08:46:18.502Z,101492.00
2023-02-16T08:47:21.468Z,101490.91
2023-02-16T08:48:23.642Z,101502.50
2023-02-16T08:49:26.289Z,101500.53
2023-02-16T08:50:29.217Z,101504.13
2023-02-16T08:51:34.707Z,101503.09
2023-02-16T08:52:38.513Z,101500.31
2023-02-16T08:53:40.737Z,101494.22
2023-02-16T08:54:42.975Z,101494.09
2023-02-16T08:55:55.882Z,101485.97
2023-02-16T08:56:59.041Z,101487.38
2023-02-16T08:58:01.583Z,101481.91
2023-02-16T08:59:03.964Z,101481.81
2023-02-16T09:00:25.692Z,101482.69
2023-02-16T09:01:28.584Z,101481.69
2023-02-16T09:02:30.846Z,101483.00
2023-02-16T09:03:33.112Z,101483.28
2023-02-16T09:04:36.818Z,101482.47
2023-02-16T09:05:39.545Z,101474.34
2023-02-16T09:06:44.387Z,101471.72
2023-02-16T09:07:46.618Z,101480.56
2023-02-16T09:08:54.084Z,101476.94
2023-02-16T09:09:56.285Z,101475.06
2023-02-16T09:11:03.753Z,101477.47
2023-02-16T09:12:06.798Z,101470.19
2023-02-16T09:13:14.050Z,101477.66
2023-02-16T09:14:19.977Z,101471.53
2023-02-16T09:15:22.615Z,101468.56
2023-02-16T09:16:27.867Z,101474.44
2023-02-16T09:17:30.926Z,101477.59
2023-02-16T09:18:33.128Z,101476.38
2023-02-16T09:19:35.533Z,101475.16
2023-02-16T09:20:39.569Z,101483.25
2023-02-16T09:21:43.039Z,101474.78
2023-02-16T09:22:47.177Z,101473.66
2023-02-16T09:23:51.004Z,101473.66
2023-02-16T09:24:53.748Z,101472.44
2023-02-16T09:25:56.318Z,101469.59
2023-02-16T09:26:58.569Z,101472.13
2023-02-16T09:28:01.075Z,101473.25
2023-02-16T09:29:04.095Z,101468.75
2023-02-16T09:30:07.391Z,101474.91
2023-02-16T09:31:25.621Z,101475.63
2023-02-16T09:32:29.582Z,101474.22
2023-02-16T09:33:31.977Z,101478.81
2023-02-16T09:34:34.261Z,101472.66
2023-02-16T09:35:39.480Z,101469.91
2023-02-16T09:36:42.532Z,101464.38
2023-02-16T09:37:44.778Z,101478.53
2023-02-16T09:38:49.023Z,101468.78
2023-02-16T09:39:51.424Z,101474.50
2023-02-16T09:40:53.990Z,101477.88
2023-02-16T09:42:05.358Z,101474.97
2023-02-16T09:43:24.822Z,101487.13
2023-02-16T09:44:39.384Z,101480.19
2023-02-16T09:45:46.303Z,101476.81
2023-02-16T09:46:49.605Z,101475.66
2023-02-16T09:47:54.365Z,101473.13
2023-02-16T09:48:57.408Z,101479.47
2023-02-16T09:50:05.041Z,101471.41
2023-02-16T09:51:09.094Z,101470.41
2023-02-16T09:52:40.700Z,101475.59
2023-02-16T09:53:45.059Z,101475.81
2023-02-16T09:54:57.641Z,101470.34
2023-02-16T09:56:08.720Z,101477.38
2023-02-16T09:57:33.439Z,101488.44
2023-02-16T09:58:48.873Z,101487.84
2023-02-16T09:59:58.812Z,101483.16
2023-02-16T10:01:40.874Z,101485.72
2023-02-16T10:02:55.754Z,101479.59
2023-02-16T10:04:03.423Z,101479.47
2023-02-16T10:05:30.299Z,101475.94
2023-02-16T10:06:52.294Z,101476.69
2023-02-16T10:08:00.440Z,101479.34
2023-02-16T10:09:12.754Z,101466.66
2023-02-16T10:10:21.490Z,101476.63
2023-02-16T10:11:38.716Z,101472.13
2023-02-16T10:12:46.599Z,101463.31
2023-02-16T10:13:57.277Z,101459.28
2023-02-16T10:15:08.360Z,101466.47
2023-02-16T10:16:17.220Z,101471.09
2023-02-16T10:17:37.814Z,101470.03
2023-02-16T10:18:45.034Z,101468.97
2023-02-16T10:19:56.283Z,101466.13
2023-02-16T10:21:02.952Z,101461.75
2023-02-16T10:22:13.057Z,101470.50
2023-02-16T10:23:33.769Z,101474.25
2023-02-16T10:24:47.865Z,101466.88
2023-02-16T10:26:13.880Z,101461.22
2023-02-16T10:27:16.901Z,101468.38
2023-02-16T10:28:46.784Z,101463.72
2023-02-16T10:29:49.111Z,101464.09
2023-02-16T10:30:56.518Z,101463.13
2023-02-16T10:32:07.826Z,101456.94
2023-02-16T10:33:17.964Z,101460.53
2023-02-16T10:34:22.612Z,101456.88
2023-02-16T10:35:45.475Z,101458.03
2023-02-16T10:36:56.016Z,101457.25
2023-02-16T10:38:12.470Z,101445.72
2023-02-16T10:39:33.219Z,101448.91
2023-02-16T10:40:48.375Z,101459.00
2023-02-16T10:42:09.878Z,101456.38
2023-02-16T10:43:25.411Z,101453.59
2023-02-16T10:44:42.263Z,101452.75
2023-02-16T10:45:52.898Z,101466.47
2023-02-16T10:47:02.610Z,101463.78
2023-02-16T10:48:05.637Z,101465.63
2023-02-16T10:49:15.787Z,101458.59
2023-02-16T10:50:23.965Z,101461.19
2023-02-16T10:51:32.708Z,101457.84
2023-02-16T10:52:40.697Z,101464.25
2023-02-16T10:53:50.464Z,101452.78
2023-02-16T10:54:52.658Z,101453.53
2023-02-16T10:55:57.416Z,101454.34
2023-02-16T10:57:06.291Z,101456.19
2023-02-16T10:58:24.721Z,101460.53
2023-02-16T10:59:42.686Z,101450.88
2023-02-16T11:01:13.907Z,101452.66
2023-02-16T11:02:37.634Z,101449.13
2023-02-16T11:03:46.604Z,101451.88
2023-02-16T11:04:52.513Z,101449.16
2023-02-16T11:05:55.469Z,101445.75
2023-02-16T11:07:06.560Z,101437.72
2023-02-16T11:08:11.318Z,101442.91
2023-02-16T11:09:15.692Z,101437.66
2023-02-16T11:10:31.070Z,101443.75
2023-02-16T11:11:42.599Z,101444.50
2023-02-16T11:12:45.326Z,101439.13
2023-02-16T11:13:50.016Z,101441.78
2023-02-16T11:14:56.846Z,101433.75
2023-02-16T11:16:11.986Z,101434.59
2023-02-16T11:17:17.426Z,101439.97
2023-02-16T11:18:34.469Z,101431.13
2023-02-16T11:19:38.837Z,101441.78
2023-02-16T11:20:47.573Z,101431.94
2023-02-16T11:21:55.576Z,101432.06
2023-02-16T11:23:29.085Z,101427.31
2023-02-16T11:24:33.540Z,101428.09
2023-02-16T11:25:35.751Z,101427.41
2023-02-16T11:26:38.181Z,101430.97
2023-02-16T11:27:51.539Z,101433.41
2023-02-16T11:28:53.794Z,101428.75
2023-02-16T11:30:24.097Z,101425.81
2023-02-16T11:31:37.147Z,101434.50
2023-02-16T11:32:39.665Z,101432.13
2023-02-16T11:33:43.630Z,101433.09
2023-02-16T11:34:47.553Z,101424.97
2023-02-16T11:35:50.294Z,101425.72
2023-02-16T11:37:03.361Z,101425.72
2023-02-16T11:38:06.434Z,101425.59
2023-02-16T11:39:20.463Z,101420.38
2023-02-16T11:40:31.881Z,101420.88
2023-02-16T11:41:35.218Z,101415.53
2023-02-16T11:42:47.293Z,101408.31
2023-02-16T11:43:49.644Z,101411.84
2023-02-16T11:44:55.735Z,101417.22
2023-02-16T11:46:16.904Z,101414.72
2023-02-16T11:47:22.283Z,101413.53
2023-02-16T11:48:31.290Z,101418.84
2023-02-16T11:49:33.466Z,101413.19
2023-02-16T11:50:54.667Z,101417.56
2023-02-16T11:51:57.471Z,101408.44
2023-02-16T11:53:12.185Z,101412.19
2023-02-16T11:54:18.625Z,101410.50
2023-02-16T11:55:27.278Z,101410.88
2023-02-16T11:56:33.180Z,101416.13
2023-02-16T11:57:37.014Z,101408.94
2023-02-16T11:58:39.826Z,101409.94
2023-02-16T11:59:42.422Z,101409.22
2023-02-16T12:01:09.433Z,101396.66
2023-02-16T12:02:45.123Z,101397.50
2023-02-16T12:04:18.401Z,101403.28
2023-02-16T12:06:01.345Z,101402.38
2023-02-16T12:07:23.104Z,101399.41
2023-02-16T12:08:35.668Z,101398.19
2023-02-16T12:09:40.768Z,101404.47
2023-02-16T12:11:17.879Z,101397.84
2023-02-16T12:12:25.663Z,101398.50
2023-02-16T12:13:40.531Z,101394.50
2023-02-16T12:14:53.622Z,101394.63
2023-02-16T12:16:37.827Z,101395.41
2023-02-16T12:18:07.639Z,101400.91
2023-02-16T12:19:31.873Z,101395.59
2023-02-16T12:20:54.823Z,101396.06
2023-02-16T12:22:16.828Z,101381.88
2023-02-16T12:23:39.106Z,101384.41
2023-02-16T12:24:44.190Z,101385.50
2023-02-16T12:26:04.187Z,101383.63
2023-02-16T12:27:18.205Z,101373.66
2023-02-16T12:28:27.306Z,101373.38
2023-02-16T12:29:46.157Z,101373.28
2023-02-16T12:31:00.797Z,101380.47
2023-02-16T12:32:07.537Z,101372.13
2023-02-16T12:33:49.671Z,101371.00
2023-02-16T12:35:04.134Z,101373.94
2023-02-16T12:37:05.968Z,101377.75
2023-02-16T12:38:26.964Z,101371.25
2023-02-16T12:40:14.485Z,101369.31
2023-02-16T12:41:53.886Z,101367.97
2023-02-16T12:43:19.510Z,101364.81
2023-02-16T12:44:36.840Z,101368.94
2023-02-16T12:45:44.324Z,101367.97
2023-02-16T12:47:01.934Z,101363.53
2023-02-16T12:48:13.272Z,101368.41
2023-02-16T12:49:18.206Z,101360.31
2023-02-16T12:50:25.949Z,101367.44
2023-02-16T12:51:36.266Z,101363.88
2023-02-16T12:52:43.178Z,101354.91
2023-02-16T12:54:10.202Z,101365.44
2023-02-16T12:55:25.556Z,101360.44
2023-02-16T12:56:41.757Z,101354.25